Terminal Aerodrome Forecast
Issued by NWS Twin Cities, MN

Home | Current Version | Previous Version | Text Only | Print | Product List | Glossary On
Versions: 1 2 3 4 5 6 7 8 9 10 11 12 13 14
000
FTUS43 KMPX 230500
TAFSTC
TAF
KSTC 230526Z 2306/2406 09005KT P6SM SCT100 SCT250
     FM231000 12009KT P6SM SCT060 BKN100
     FM231400 13013G19KT 6SM -SHRA SCT030 BKN060
     FM232000 13017G25KT 4SM -RA BR OVC030
     FM240000 13014G21KT 4SM -RA BR OVC025
      TEMPO 2401/2405 2SM -RA BR=

USA.gov is the U.S. government's official web portal to all federal, state and local government web resources and services.